createdAt,value
2022-11-06T00:01:50.062Z,14.31
2022-11-06T00:03:53.104Z,14.27
2022-11-06T00:06:13.702Z,14.26
2022-11-06T00:08:16.519Z,14.19
2022-11-06T00:10:18.853Z,14.02
2022-11-06T00:12:21.072Z,13.81
2022-11-06T00:14:22.898Z,13.93
2022-11-06T00:16:24.747Z,13.90
2022-11-06T00:18:27.671Z,13.93
2022-11-06T00:20:29.531Z,13.77
2022-11-06T00:22:37.553Z,13.68
2022-11-06T00:24:39.751Z,13.70
2022-11-06T00:26:42.705Z,13.75
2022-11-06T00:28:44.983Z,13.58
2022-11-06T00:30:47.316Z,13.56
2022-11-06T00:32:49.146Z,13.66
2022-11-06T00:34:51.080Z,13.65
2022-11-06T00:36:53.266Z,13.47
2022-11-06T00:38:56.131Z,13.61
2022-11-06T00:41:01.687Z,13.54
2022-11-06T00:43:03.925Z,13.54
2022-11-06T00:45:06.266Z,13.53
2022-11-06T00:47:08.692Z,13.45
2022-11-06T00:49:10.899Z,13.57
2022-11-06T00:51:15.755Z,13.57
2022-11-06T00:53:17.631Z,13.53
2022-11-06T00:55:19.858Z,13.43
2022-11-06T00:57:21.860Z,13.56
2022-11-06T00:59:23.729Z,13.62
2022-11-06T01:01:31.151Z,13.56
2022-11-06T01:03:33.236Z,13.51
2022-11-06T01:05:35.067Z,13.51
2022-11-06T01:07:37.399Z,13.47
2022-11-06T01:09:39.296Z,13.35
2022-11-06T01:12:10.915Z,13.30
2022-11-06T01:14:09.180Z,13.22
2022-11-06T01:16:14.760Z,13.12
2022-11-06T01:18:16.604Z,13.11
2022-11-06T01:20:18.791Z,13.09
2022-11-06T01:22:20.596Z,13.09
2022-11-06T01:24:27.992Z,13.24
2022-11-06T01:26:38.261Z,13.17
2022-11-06T01:28:41.340Z,13.07
2022-11-06T01:30:43.291Z,12.98
2022-11-06T01:32:45.650Z,12.92
2022-11-06T01:34:49.630Z,12.96
2022-11-06T01:36:51.542Z,12.87
2022-11-06T01:38:56.679Z,12.85
2022-11-06T01:40:58.640Z,12.85
2022-11-06T01:43:00.475Z,12.83
2022-11-06T01:45:26.885Z,12.85
2022-11-06T01:47:29.789Z,12.84
2022-11-06T01:49:36.630Z,12.77
2022-11-06T01:51:44.584Z,12.78
2022-11-06T01:53:46.548Z,12.68
2022-11-06T01:55:56.268Z,12.77
2022-11-06T01:58:01.721Z,12.79
2022-11-06T02:00:05.624Z,12.89
2022-11-06T02:02:07.824Z,12.78
2022-11-06T02:04:21.457Z,12.97
2022-11-06T02:06:23.831Z,12.92
2022-11-06T02:08:26.178Z,12.84
2022-11-06T02:10:29.687Z,12.74
2022-11-06T02:12:50.162Z,12.76
2022-11-06T02:15:40.110Z,12.70
2022-11-06T02:17:58.251Z,12.65
2022-11-06T02:20:31.698Z,12.58
2022-11-06T02:22:51.794Z,12.59
2022-11-06T02:25:19.234Z,12.49
2022-11-06T02:27:27.181Z,12.31
2022-11-06T02:29:31.585Z,12.46
2022-11-06T02:31:37.605Z,12.42
2022-11-06T02:33:48.917Z,12.49
2022-11-06T02:36:00.547Z,12.45
2022-11-06T02:38:09.994Z,12.45
2022-11-06T02:40:15.205Z,12.46
2022-11-06T02:42:20.046Z,12.46
2022-11-06T02:44:27.142Z,12.50
2022-11-06T02:46:35.386Z,12.52
2022-11-06T02:48:49.146Z,12.51
2022-11-06T02:50:54.850Z,12.49
2022-11-06T02:53:06.262Z,12.45
2022-11-06T02:55:17.986Z,12.51
2022-11-06T02:57:21.646Z,12.49
2022-11-06T02:59:43.526Z,12.46
2022-11-06T03:01:45.407Z,12.49
2022-11-06T03:03:53.448Z,12.55
2022-11-06T03:06:00.834Z,12.58
2022-11-06T03:08:26.525Z,12.65
2022-11-06T03:10:34.110Z,12.56
2022-11-06T03:12:48.009Z,12.53
2022-11-06T03:14:57.332Z,12.51
2022-11-06T03:17:05.437Z,12.52
2022-11-06T03:19:25.558Z,12.50
2022-11-06T03:21:35.273Z,12.47
2022-11-06T03:23:49.178Z,12.30
2022-11-06T03:26:12.670Z,12.27
2022-11-06T03:28:31.988Z,12.29
2022-11-06T03:30:39.168Z,12.29
2022-11-06T03:32:53.958Z,12.27
2022-11-06T03:35:07.133Z,12.19
2022-11-06T03:37:17.260Z,12.12
2022-11-06T03:39:25.746Z,12.12
2022-11-06T03:41:52.714Z,12.08
2022-11-06T03:43:57.974Z,12.10
2022-11-06T03:46:04.346Z,11.98
2022-11-06T03:48:22.417Z,11.98
2022-11-06T03:50:39.037Z,11.79
2022-11-06T03:52:47.007Z,11.69
2022-11-06T03:55:00.687Z,11.58
2022-11-06T03:57:09.520Z,11.57
2022-11-06T03:59:14.504Z,11.65
2022-11-06T04:01:21.268Z,11.63
2022-11-06T04:03:30.780Z,11.63
2022-11-06T04:05:38.295Z,11.44
2022-11-06T04:08:04.345Z,11.30
2022-11-06T04:10:29.797Z,11.24
2022-11-06T04:12:52.641Z,11.12
2022-11-06T04:14:58.457Z,11.02
2022-11-06T04:17:05.046Z,10.89
2022-11-06T04:19:14.871Z,10.89
2022-11-06T04:21:22.523Z,10.82
2022-11-06T04:24:14.489Z,10.79
2022-11-06T04:26:39.298Z,10.41
2022-11-06T04:29:01.437Z,10.51
2022-11-06T04:31:25.373Z,10.57
2022-11-06T04:33:37.830Z,10.77
2022-11-06T04:35:48.392Z,10.81
2022-11-06T04:37:58.935Z,10.65
2022-11-06T04:40:26.060Z,10.57
2022-11-06T04:43:08.169Z,10.80
2022-11-06T04:45:23.989Z,10.84
2022-11-06T04:47:26.415Z,10.93
2022-11-06T04:49:32.941Z,10.83
2022-11-06T04:51:38.093Z,10.84
2022-11-06T04:53:40.782Z,10.77
2022-11-06T04:55:47.582Z,10.91
2022-11-06T04:57:49.474Z,10.93
2022-11-06T04:59:51.366Z,10.92
2022-11-06T05:01:54.120Z,10.82
2022-11-06T05:03:56.173Z,10.82
2022-11-06T05:05:57.978Z,10.79
2022-11-06T05:08:00.249Z,10.77
2022-11-06T05:10:02.271Z,10.76
2022-11-06T05:12:04.204Z,10.73
2022-11-06T05:14:06.691Z,10.64
2022-11-06T05:16:08.586Z,10.65
2022-11-06T05:18:10.989Z,10.54
2022-11-06T05:20:13.328Z,10.52
2022-11-06T05:22:33.970Z,10.56
2022-11-06T05:24:35.856Z,10.38
2022-11-06T05:26:38.178Z,10.39
2022-11-06T05:28:40.190Z,10.42
2022-11-06T05:30:42.059Z,10.35
2022-11-06T05:32:44.287Z,10.45
2022-11-06T05:34:46.955Z,10.54
2022-11-06T05:36:48.819Z,10.38
2022-11-06T05:38:51.522Z,10.39
2022-11-06T05:40:53.371Z,10.35
2022-11-06T05:42:55.242Z,10.31
2022-11-06T05:44:57.406Z,10.42
2022-11-06T05:46:59.294Z,10.48
2022-11-06T05:49:01.187Z,10.44
2022-11-06T05:51:08.049Z,10.36
2022-11-06T05:53:10.181Z,10.38
2022-11-06T05:55:15.108Z,10.30
2022-11-06T05:57:17.757Z,10.47
2022-11-06T05:59:19.610Z,10.47
2022-11-06T06:01:21.525Z,10.57
2022-11-06T06:03:25.135Z,10.56
2022-11-06T06:05:26.983Z,10.57
2022-11-06T06:07:29.259Z,10.53
2022-11-06T06:09:31.593Z,10.49
2022-11-06T06:11:33.602Z,10.58
2022-11-06T06:13:37.490Z,10.58
2022-11-06T06:15:40.841Z,10.74
2022-11-06T06:17:42.593Z,10.71
2022-11-06T06:19:44.527Z,10.55
2022-11-06T06:21:46.693Z,10.71
2022-11-06T06:23:48.591Z,10.78
2022-11-06T06:25:50.666Z,10.96
2022-11-06T06:27:54.665Z,10.99
2022-11-06T06:29:56.585Z,11.30
2022-11-06T06:31:58.423Z,11.29
2022-11-06T06:34:00.649Z,11.15
2022-11-06T06:36:06.276Z,11.31
2022-11-06T06:38:08.239Z,11.32
2022-11-06T06:40:11.162Z,11.42
2022-11-06T06:42:13.021Z,11.55
2022-11-06T06:44:15.614Z,11.62
2022-11-06T06:46:17.710Z,11.69
2022-11-06T06:48:19.802Z,11.45
2022-11-06T06:50:21.665Z,11.60
2022-11-06T06:52:23.929Z,11.72
2022-11-06T06:54:25.745Z,11.83
2022-11-06T06:56:27.601Z,11.77
2022-11-06T06:58:30.530Z,11.30
2022-11-06T07:00:32.341Z,11.41
2022-11-06T07:02:34.235Z,11.45
2022-11-06T07:04:36.494Z,11.66
2022-11-06T07:06:38.317Z,11.84
2022-11-06T07:08:40.233Z,11.91
2022-11-06T07:10:42.507Z,11.94
2022-11-06T07:12:44.386Z,11.91
2022-11-06T07:14:46.397Z,11.99
2022-11-06T07:16:53.446Z,11.49
2022-11-06T07:18:56.322Z,11.66
2022-11-06T07:20:58.320Z,11.85
2022-11-06T07:23:05.630Z,11.87
2022-11-06T07:25:07.896Z,12.08
2022-11-06T07:27:09.838Z,11.89
2022-11-06T07:29:12.108Z,12.08
2022-11-06T07:31:14.020Z,12.44
2022-11-06T07:33:15.920Z,12.56
2022-11-06T07:35:18.113Z,12.75
2022-11-06T07:37:19.963Z,12.86
2022-11-06T07:39:21.815Z,12.63
2022-11-06T07:41:24.083Z,12.68
2022-11-06T07:43:26.874Z,12.49
2022-11-06T07:45:28.734Z,12.69
2022-11-06T07:47:31.150Z,12.67
2022-11-06T07:49:32.997Z,12.76
2022-11-06T07:51:34.983Z,12.92
2022-11-06T07:53:38.218Z,12.99
2022-11-06T07:55:42.394Z,13.27
2022-11-06T07:57:44.563Z,13.39
2022-11-06T07:59:46.733Z,13.29
2022-11-06T08:01:48.784Z,13.16
2022-11-06T08:03:50.892Z,13.31
2022-11-06T08:05:53.055Z,13.45
2022-11-06T08:07:58.053Z,13.27
2022-11-06T08:09:59.930Z,13.33
2022-11-06T08:12:02.613Z,12.96
2022-11-06T08:14:04.476Z,12.94
2022-11-06T08:16:08.786Z,12.95
2022-11-06T08:18:12.046Z,12.97
2022-11-06T08:20:14.266Z,13.00
2022-11-06T08:22:16.104Z,12.88
2022-11-06T08:24:21.883Z,12.84
2022-11-06T08:26:24.286Z,12.91
2022-11-06T08:28:26.885Z,12.94
2022-11-06T08:30:29.397Z,12.85
2022-11-06T08:32:31.280Z,13.04
2022-11-06T08:34:35.450Z,13.27
2022-11-06T08:36:50.183Z,13.11
2022-11-06T08:38:52.128Z,13.30
2022-11-06T08:40:54.135Z,13.18
2022-11-06T08:43:04.375Z,13.21
2022-11-06T08:45:06.795Z,12.87
2022-11-06T08:47:09.148Z,13.01
2022-11-06T08:49:11.453Z,13.14
2022-11-06T08:51:13.260Z,13.52
2022-11-06T08:53:15.641Z,13.83
2022-11-06T08:55:18.017Z,13.77
2022-11-06T08:57:19.827Z,13.73
2022-11-06T08:59:21.739Z,13.75
2022-11-06T09:01:24.358Z,13.90
2022-11-06T09:03:26.325Z,13.85
2022-11-06T09:05:29.740Z,13.92
2022-11-06T09:07:31.905Z,13.87
2022-11-06T09:09:33.864Z,13.99
2022-11-06T09:11:35.695Z,13.99
2022-11-06T09:13:38.105Z,14.06
2022-11-06T09:15:40.239Z,14.37
2022-11-06T09:17:50.166Z,14.33
2022-11-06T09:19:52.796Z,14.34
2022-11-06T09:21:55.161Z,14.47
2022-11-06T09:23:57.095Z,14.61
2022-11-06T09:25:59.338Z,14.66
2022-11-06T09:28:01.337Z,14.92
2022-11-06T09:30:03.299Z,14.92
2022-11-06T09:32:05.499Z,14.84
2022-11-06T09:34:07.394Z,14.80
2022-11-06T09:36:09.469Z,14.86
2022-11-06T09:38:13.030Z,14.77
2022-11-06T09:40:27.030Z,14.88
2022-11-06T09:42:38.923Z,15.05
2022-11-06T09:44:59.687Z,15.06
2022-11-06T09:47:12.448Z,14.90
2022-11-06T09:49:34.189Z,15.20
2022-11-06T09:51:48.122Z,15.04
2022-11-06T09:54:03.119Z,14.89
2022-11-06T09:56:06.621Z,15.00
2022-11-06T09:58:16.577Z,15.12
2022-11-06T10:00:19.203Z,14.94
2022-11-06T10:02:42.071Z,15.07
2022-11-06T10:04:58.844Z,14.93
2022-11-06T10:07:00.973Z,14.66
2022-11-06T10:09:06.764Z,14.88
2022-11-06T10:11:14.920Z,15.27
2022-11-06T10:13:37.877Z,15.21
2022-11-06T10:15:56.590Z,15.07
2022-11-06T10:17:58.772Z,14.99
2022-11-06T10:20:26.481Z,14.76
2022-11-06T10:22:48.100Z,14.67
2022-11-06T10:24:56.465Z,14.72
2022-11-06T10:26:58.531Z,14.64
2022-11-06T10:29:19.695Z,14.53
2022-11-06T10:31:43.757Z,14.39
2022-11-06T10:34:10.685Z,14.18
2022-11-06T10:36:25.995Z,13.96
2022-11-06T10:38:32.942Z,14.21
2022-11-06T10:40:35.544Z,14.43
2022-11-06T10:42:39.913Z,14.64
2022-11-06T10:44:50.139Z,14.78
2022-11-06T10:46:59.184Z,14.74
2022-11-06T10:49:05.009Z,14.62
2022-11-06T10:51:16.622Z,14.95
2022-11-06T10:53:40.392Z,14.93
2022-11-06T10:56:21.081Z,14.72
2022-11-06T10:58:29.173Z,14.90
2022-11-06T11:00:32.275Z,15.03
2022-11-06T11:02:39.442Z,14.90
2022-11-06T11:04:44.273Z,14.74
2022-11-06T11:06:46.180Z,14.80
2022-11-06T11:08:50.322Z,15.11
2022-11-06T11:11:04.407Z,15.17
2022-11-06T11:13:20.610Z,15.15
2022-11-06T11:15:28.241Z,15.42
2022-11-06T11:17:30.506Z,15.32
2022-11-06T11:19:38.301Z,15.20
2022-11-06T11:21:52.935Z,15.05
2022-11-06T11:24:05.713Z,14.97
2022-11-06T11:26:29.032Z,14.61
2022-11-06T11:28:34.383Z,14.66
2022-11-06T11:30:37.170Z,14.80
2022-11-06T11:32:39.013Z,14.84
2022-11-06T11:34:51.420Z,14.90
2022-11-06T11:37:08.160Z,14.70
2022-11-06T11:39:10.427Z,14.62
2022-11-06T11:41:21.583Z,14.54
2022-11-06T11:43:30.674Z,14.69
2022-11-06T11:45:32.587Z,14.60
2022-11-06T11:47:36.000Z,14.66
2022-11-06T11:49:38.178Z,14.57
2022-11-06T11:51:47.102Z,14.41
2022-11-06T11:53:49.208Z,14.29
2022-11-06T11:55:53.123Z,14.18
2022-11-06T11:57:59.283Z,14.28
2022-11-06T12:00:06.399Z,14.31
2022-11-06T12:02:36.417Z,14.34
2022-11-06T12:04:43.738Z,14.56
2022-11-06T12:06:55.460Z,14.54
2022-11-06T12:08:57.723Z,14.53
2022-11-06T12:11:04.582Z,14.64
2022-11-06T12:13:21.025Z,14.47
2022-11-06T12:15:38.141Z,14.55
2022-11-06T12:17:41.982Z,14.63
2022-11-06T12:19:51.927Z,14.68
2022-11-06T12:22:00.750Z,14.72
2022-11-06T12:24:23.378Z,14.64
2022-11-06T12:26:34.456Z,14.54
2022-11-06T12:28:39.922Z,14.52
2022-11-06T12:30:44.133Z,14.76
2022-11-06T12:32:49.248Z,14.69
2022-11-06T12:35:10.063Z,14.69
2022-11-06T12:37:40.478Z,14.71
2022-11-06T12:39:47.640Z,14.83
2022-11-06T12:41:50.809Z,14.81
2022-11-06T12:43:53.884Z,14.76
2022-11-06T12:46:00.928Z,14.82
2022-11-06T12:48:30.599Z,14.93
2022-11-06T12:50:47.102Z,14.89
2022-11-06T12:53:10.235Z,14.98
2022-11-06T12:55:14.672Z,15.04
2022-11-06T12:57:28.408Z,15.07
2022-11-06T12:59:43.016Z,15.05
2022-11-06T13:02:02.521Z,15.14
2022-11-06T13:04:07.526Z,15.29
2022-11-06T13:06:33.141Z,15.37
2022-11-06T13:09:17.848Z,15.66
2022-11-06T13:11:41.575Z,15.88
2022-11-06T13:14:00.069Z,15.92
2022-11-06T13:16:07.643Z,15.94
2022-11-06T13:18:15.917Z,16.01
2022-11-06T13:20:32.807Z,16.13
2022-11-06T13:22:42.571Z,16.15
2022-11-06T13:25:12.821Z,16.28
2022-11-06T13:27:19.425Z,16.25
2022-11-06T13:29:24.462Z,16.08
2022-11-06T13:31:39.215Z,15.96
2022-11-06T13:33:49.327Z,15.94
2022-11-06T13:35:51.764Z,15.83
2022-11-06T13:37:56.223Z,15.69
2022-11-06T13:40:10.482Z,15.87
2022-11-06T13:42:27.029Z,16.20
2022-11-06T13:44:30.463Z,16.22
2022-11-06T13:46:35.250Z,16.23
2022-11-06T13:49:02.149Z,16.05
2022-11-06T13:51:14.586Z,15.77
2022-11-06T13:53:37.477Z,15.54
2022-11-06T13:56:01.228Z,15.33
2022-11-06T13:58:16.229Z,15.15
2022-11-06T14:00:20.609Z,15.04
2022-11-06T14:02:34.687Z,14.92
2022-11-06T14:05:14.706Z,14.78
2022-11-06T14:07:17.954Z,14.73
2022-11-06T14:09:23.274Z,14.66
2022-11-06T14:11:29.101Z,14.57
2022-11-06T14:13:36.551Z,14.58
2022-11-06T14:15:41.811Z,14.41
2022-11-06T14:17:58.636Z,14.45
2022-11-06T14:20:06.042Z,14.35
2022-11-06T14:22:23.654Z,14.24
2022-11-06T14:24:36.163Z,14.28
2022-11-06T14:26:46.790Z,14.15
2022-11-06T14:28:48.770Z,14.01
2022-11-06T14:31:11.704Z,14.10
2022-11-06T14:33:44.831Z,14.05
2022-11-06T14:35:46.739Z,14.01
2022-11-06T14:37:49.079Z,13.97
2022-11-06T14:39:57.012Z,13.93
2022-11-06T14:41:59.657Z,13.81
2022-11-06T14:44:04.312Z,13.81
2022-11-06T14:46:21.927Z,13.72
2022-11-06T14:48:28.158Z,13.68
2022-11-06T14:50:40.651Z,13.59
2022-11-06T14:52:47.615Z,13.57
2022-11-06T14:55:05.568Z,13.53
2022-11-06T14:57:15.399Z,13.48
2022-11-06T14:59:41.985Z,13.35
2022-11-06T15:02:19.606Z,13.45
2022-11-06T15:04:24.913Z,13.40
2022-11-06T15:06:29.780Z,13.35
2022-11-06T15:08:57.843Z,13.33
2022-11-06T15:11:00.128Z,13.18
2022-11-06T15:13:12.374Z,13.17
2022-11-06T15:15:20.121Z,13.12
2022-11-06T15:17:24.059Z,13.02
2022-11-06T15:19:37.843Z,12.92
2022-11-06T15:21:45.679Z,12.93
2022-11-06T15:24:06.125Z,12.81
2022-11-06T15:26:27.467Z,12.92
2022-11-06T15:28:38.206Z,12.90
2022-11-06T15:30:49.782Z,12.74
2022-11-06T15:32:54.192Z,12.72
2022-11-06T15:35:06.226Z,12.74
2022-11-06T15:37:14.191Z,12.73
2022-11-06T15:39:56.016Z,12.69
2022-11-06T15:42:01.450Z,12.55
2022-11-06T15:44:05.011Z,12.59
2022-11-06T15:46:12.876Z,12.61
2022-11-06T15:48:23.963Z,12.51
2022-11-06T15:50:35.069Z,12.50
2022-11-06T15:52:37.115Z,12.29
2022-11-06T15:54:44.125Z,12.37
2022-11-06T15:56:48.981Z,12.34
2022-11-06T15:59:14.730Z,12.34
2022-11-06T16:01:32.200Z,12.37
2022-11-06T16:03:52.133Z,12.22
2022-11-06T16:05:58.750Z,12.27
2022-11-06T16:08:01.307Z,12.14
2022-11-06T16:10:04.474Z,12.15
2022-11-06T16:12:06.679Z,12.13
2022-11-06T16:14:12.878Z,11.95
2022-11-06T16:16:38.599Z,12.01
2022-11-06T16:18:44.231Z,11.96
2022-11-06T16:20:51.257Z,12.08
2022-11-06T16:22:53.578Z,12.17
2022-11-06T16:25:04.862Z,12.04
2022-11-06T16:27:07.239Z,12.16
2022-11-06T16:29:20.081Z,11.96
2022-11-06T16:31:28.161Z,11.96
2022-11-06T16:33:30.226Z,12.12
2022-11-06T16:35:36.931Z,12.10
2022-11-06T16:37:39.706Z,12.21
2022-11-06T16:39:52.609Z,12.21
2022-11-06T16:41:57.989Z,12.28
2022-11-06T16:44:43.810Z,12.32
2022-11-06T16:47:10.161Z,12.29
2022-11-06T16:49:33.650Z,12.05
2022-11-06T16:51:35.812Z,12.01
2022-11-06T16:53:57.292Z,12.04
2022-11-06T16:56:06.029Z,12.02
2022-11-06T16:58:16.627Z,11.99
2022-11-06T17:00:21.537Z,11.96
2022-11-06T17:02:27.529Z,11.99
2022-11-06T17:04:30.039Z,11.92
2022-11-06T17:06:34.446Z,11.93
2022-11-06T17:08:40.041Z,11.91
2022-11-06T17:10:43.392Z,11.89
2022-11-06T17:12:45.318Z,11.83
2022-11-06T17:14:48.543Z,11.84
2022-11-06T17:16:57.815Z,11.99
2022-11-06T17:19:00.039Z,11.91
2022-11-06T17:21:11.661Z,11.83
2022-11-06T17:23:16.230Z,11.85
2022-11-06T17:25:18.504Z,11.85
2022-11-06T17:27:20.901Z,11.94
2022-11-06T17:29:22.767Z,11.95
2022-11-06T17:31:25.692Z,12.14
2022-11-06T17:33:28.066Z,12.17
2022-11-06T17:35:29.979Z,12.17
2022-11-06T17:37:31.782Z,12.16
2022-11-06T17:39:34.267Z,11.83
2022-11-06T17:41:36.100Z,12.05
2022-11-06T17:43:38.152Z,12.06
2022-11-06T17:45:44.469Z,12.03
2022-11-06T17:47:46.412Z,11.99
2022-11-06T17:49:48.878Z,11.95
2022-11-06T17:51:53.593Z,11.96
2022-11-06T17:53:55.776Z,11.97
2022-11-06T17:55:57.625Z,11.96
2022-11-06T17:57:59.828Z,11.99
2022-11-06T18:00:01.717Z,11.92
2022-11-06T18:02:04.044Z,11.94
2022-11-06T18:04:09.529Z,11.92
2022-11-06T18:06:13.022Z,11.87
2022-11-06T18:08:15.582Z,11.92
2022-11-06T18:10:18.355Z,11.87
2022-11-06T18:12:22.598Z,11.86
2022-11-06T18:14:26.587Z,11.81
2022-11-06T18:16:32.376Z,11.79
2022-11-06T18:18:35.130Z,11.69
2022-11-06T18:20:37.026Z,11.68
2022-11-06T18:22:39.594Z,11.70
2022-11-06T18:24:41.785Z,11.62
2022-11-06T18:26:44.610Z,11.64
2022-11-06T18:28:47.730Z,11.58
2022-11-06T18:30:50.259Z,11.62
2022-11-06T18:32:52.250Z,11.68
2022-11-06T18:34:54.703Z,11.67
2022-11-06T18:36:56.569Z,11.66
2022-11-06T18:38:58.736Z,11.65
2022-11-06T18:41:12.546Z,11.66
2022-11-06T18:43:14.731Z,11.53
2022-11-06T18:45:16.574Z,11.51
2022-11-06T18:47:19.133Z,11.51
2022-11-06T18:49:20.985Z,11.48
2022-11-06T18:51:34.476Z,11.48
2022-11-06T18:53:39.241Z,11.43
2022-11-06T18:55:46.042Z,11.50
2022-11-06T18:57:47.919Z,11.51
2022-11-06T18:59:50.249Z,11.58
2022-11-06T19:01:53.201Z,11.54
2022-11-06T19:03:55.732Z,11.59
2022-11-06T19:05:58.062Z,11.63
2022-11-06T19:08:00.846Z,11.60
2022-11-06T19:10:02.993Z,11.49
2022-11-06T19:12:05.670Z,11.59
2022-11-06T19:14:08.179Z,11.50
2022-11-06T19:16:12.338Z,11.56
2022-11-06T19:18:15.770Z,11.52
2022-11-06T19:20:17.808Z,11.41
2022-11-06T19:22:19.773Z,11.50
2022-11-06T19:24:22.166Z,11.47
2022-11-06T19:26:30.484Z,11.45
2022-11-06T19:28:35.861Z,11.42
2022-11-06T19:30:38.451Z,11.49
2022-11-06T19:32:40.901Z,11.59
2022-11-06T19:34:42.876Z,11.45
2022-11-06T19:36:45.067Z,11.43
2022-11-06T19:38:46.920Z,11.44
2022-11-06T19:41:00.306Z,11.32
2022-11-06T19:43:04.026Z,11.40
2022-11-06T19:45:06.318Z,11.40
2022-11-06T19:47:08.241Z,11.51
2022-11-06T19:49:10.639Z,11.52
2022-11-06T19:51:15.652Z,11.63
2022-11-06T19:53:21.825Z,11.72
2022-11-06T19:55:24.976Z,11.74
2022-11-06T19:57:30.549Z,11.73
2022-11-06T19:59:32.582Z,11.83
2022-11-06T20:01:35.009Z,11.75
2022-11-06T20:03:37.329Z,11.70
2022-11-06T20:05:40.460Z,11.78
2022-11-06T20:07:42.747Z,11.85
2022-11-06T20:09:44.765Z,11.72
2022-11-06T20:11:46.591Z,11.65
2022-11-06T20:13:48.799Z,11.59
2022-11-06T20:15:50.619Z,11.63
2022-11-06T20:17:52.651Z,11.59
2022-11-06T20:19:54.856Z,11.57
2022-11-06T20:21:56.740Z,11.46
2022-11-06T20:23:58.574Z,11.48
2022-11-06T20:26:01.378Z,11.47
2022-11-06T20:28:03.933Z,11.50
2022-11-06T20:30:07.460Z,11.38
2022-11-06T20:32:09.862Z,11.37
2022-11-06T20:34:12.058Z,11.35
2022-11-06T20:36:17.173Z,11.33
2022-11-06T20:38:19.372Z,11.28
2022-11-06T20:40:21.303Z,11.32
2022-11-06T20:42:23.353Z,11.17
2022-11-06T20:44:25.519Z,11.18
2022-11-06T20:46:27.654Z,11.23
2022-11-06T20:48:30.617Z,11.14
2022-11-06T20:50:33.351Z,11.13
2022-11-06T20:52:35.606Z,10.94
2022-11-06T20:54:40.079Z,10.96
2022-11-06T20:56:45.093Z,10.99
2022-11-06T20:58:47.649Z,11.02
2022-11-06T21:00:49.686Z,10.98
2022-11-06T21:02:55.207Z,10.85
2022-11-06T21:04:59.603Z,10.86
2022-11-06T21:07:01.497Z,10.76
2022-11-06T21:09:04.927Z,10.80
2022-11-06T21:11:08.639Z,10.70
2022-11-06T21:13:10.635Z,10.85
2022-11-06T21:15:13.060Z,10.73
2022-11-06T21:17:15.808Z,10.71
2022-11-06T21:19:17.649Z,10.84
2022-11-06T21:21:23.751Z,10.79
2022-11-06T21:23:25.575Z,10.77
2022-11-06T21:25:28.025Z,10.87
2022-11-06T21:27:30.804Z,10.84
2022-11-06T21:29:32.653Z,10.77
2022-11-06T21:31:35.043Z,10.83
2022-11-06T21:33:41.273Z,10.79
2022-11-06T21:35:43.540Z,10.87
2022-11-06T21:37:45.415Z,10.79
2022-11-06T21:39:48.066Z,10.85
2022-11-06T21:41:49.951Z,10.82
2022-11-06T21:43:52.061Z,10.86
2022-11-06T21:45:54.314Z,10.92
2022-11-06T21:47:56.190Z,10.83
2022-11-06T21:49:58.102Z,10.85
2022-11-06T21:52:23.882Z,10.78
2022-11-06T21:54:47.217Z,10.71
2022-11-06T21:56:50.538Z,10.74
2022-11-06T21:58:54.800Z,10.92
2022-11-06T22:00:56.775Z,10.79
2022-11-06T22:02:58.770Z,10.82
2022-11-06T22:05:01.169Z,10.84
2022-11-06T22:07:03.032Z,10.76
2022-11-06T22:09:04.963Z,10.68
2022-11-06T22:11:14.922Z,10.62
2022-11-06T22:13:16.921Z,10.67
2022-11-06T22:15:19.188Z,10.72
2022-11-06T22:17:21.474Z,10.72
2022-11-06T22:19:23.516Z,10.70
2022-11-06T22:21:27.996Z,10.72
2022-11-06T22:23:30.305Z,10.69
2022-11-06T22:25:32.337Z,10.86
2022-11-06T22:27:39.656Z,10.64
2022-11-06T22:29:43.429Z,10.76
2022-11-06T22:31:45.332Z,10.86
2022-11-06T22:33:52.372Z,10.70
2022-11-06T22:36:07.590Z,10.81
2022-11-06T22:38:11.021Z,10.79
2022-11-06T22:40:12.921Z,10.83
2022-11-06T22:42:15.444Z,10.81
2022-11-06T22:44:17.476Z,10.67
2022-11-06T22:46:23.270Z,10.73
2022-11-06T22:48:25.923Z,10.68
2022-11-06T22:50:27.778Z,10.75
2022-11-06T22:52:29.627Z,10.83
2022-11-06T22:54:31.868Z,10.79
2022-11-06T22:56:34.088Z,10.72
2022-11-06T22:58:35.992Z,10.67
2022-11-06T23:00:38.228Z,10.66
2022-11-06T23:02:40.102Z,10.64
2022-11-06T23:04:42.062Z,10.62
2022-11-06T23:06:45.315Z,10.46
2022-11-06T23:08:47.434Z,10.31
2022-11-06T23:10:49.410Z,10.49
2022-11-06T23:12:51.851Z,10.46
2022-11-06T23:14:53.771Z,10.47
2022-11-06T23:16:58.942Z,10.47
2022-11-06T23:19:01.122Z,10.44
2022-11-06T23:21:10.389Z,10.48
2022-11-06T23:23:12.394Z,10.47
2022-11-06T23:25:14.897Z,10.43
2022-11-06T23:27:16.749Z,10.52
2022-11-06T23:29:18.723Z,10.52
2022-11-06T23:31:21.335Z,10.51
2022-11-06T23:33:23.150Z,10.47
2022-11-06T23:35:29.384Z,10.48
2022-11-06T23:37:33.420Z,10.47
2022-11-06T23:39:35.254Z,10.45
2022-11-06T23:41:42.994Z,10.53
2022-11-06T23:43:49.270Z,10.55
2022-11-06T23:45:51.609Z,10.55
2022-11-06T23:47:53.500Z,10.46
2022-11-06T23:49:55.985Z,10.47
2022-11-06T23:51:58.103Z,10.46
2022-11-06T23:54:00.399Z,10.46
2022-11-06T23:56:07.018Z,10.49
2022-11-06T23:58:09.118Z,10.50
